sensor_id;sensor_type;location;lat;lon;timestamp;P1;durP1;ratioP1;P2;durP2;ratioP2
21458;SDS011;10891;49.350;19.386;2022-12-18T00:01:58;129.93;;;37.63;;
21458;SDS011;10891;49.350;19.386;2022-12-18T00:04:25;117.27;;;33.57;;
21458;SDS011;10891;49.350;19.386;2022-12-18T00:06:53;74.70;;;25.47;;
21458;SDS011;10891;49.350;19.386;2022-12-18T00:09:20;93.53;;;28.63;;
21458;SDS011;10891;49.350;19.386;2022-12-18T00:11:47;103.80;;;29.37;;
21458;SDS011;10891;49.350;19.386;2022-12-18T00:14:14;96.63;;;29.17;;
21458;SDS011;10891;49.350;19.386;2022-12-18T00:16:44;80.77;;;26.00;;
21458;SDS011;10891;49.350;19.386;2022-12-18T00:19:12;71.57;;;23.83;;
21458;SDS011;10891;49.350;19.386;2022-12-18T00:21:40;127.20;;;36.60;;
21458;SDS011;10891;49.350;19.386;2022-12-18T00:24:08;148.37;;;37.70;;
21458;SDS011;10891;49.350;19.386;2022-12-18T00:26:36;160.17;;;40.67;;
21458;SDS011;10891;49.350;19.386;2022-12-18T00:29:05;110.77;;;32.03;;
21458;SDS011;10891;49.350;19.386;2022-12-18T00:31:33;101.40;;;29.80;;
21458;SDS011;10891;49.350;19.386;2022-12-18T00:34:02;97.40;;;28.93;;
21458;SDS011;10891;49.350;19.386;2022-12-18T00:36:30;72.03;;;24.53;;
21458;SDS011;10891;49.350;19.386;2022-12-18T00:39:00;92.67;;;27.13;;
21458;SDS011;10891;49.350;19.386;2022-12-18T00:41:28;82.77;;;27.23;;
21458;SDS011;10891;49.350;19.386;2022-12-18T00:44:13;89.73;;;32.07;;
21458;SDS011;10891;49.350;19.386;2022-12-18T00:46:42;73.43;;;21.87;;
21458;SDS011;10891;49.350;19.386;2022-12-18T00:49:15;90.70;;;25.77;;
21458;SDS011;10891;49.350;19.386;2022-12-18T00:51:42;70.83;;;23.80;;
21458;SDS011;10891;49.350;19.386;2022-12-18T00:54:09;89.33;;;27.93;;
21458;SDS011;10891;49.350;19.386;2022-12-18T00:56:37;93.23;;;27.23;;
21458;SDS011;10891;49.350;19.386;2022-12-18T00:59:04;74.73;;;27.07;;
21458;SDS011;10891;49.350;19.386;2022-12-18T01:01:31;72.03;;;24.90;;
21458;SDS011;10891;49.350;19.386;2022-12-18T01:03:59;72.33;;;24.30;;
21458;SDS011;10891;49.350;19.386;2022-12-18T01:06:28;81.03;;;24.73;;
21458;SDS011;10891;49.350;19.386;2022-12-18T01:08:55;67.63;;;21.43;;
21458;SDS011;10891;49.350;19.386;2022-12-18T01:11:22;59.90;;;18.67;;
21458;SDS011;10891;49.350;19.386;2022-12-18T01:13:49;65.53;;;22.63;;
21458;SDS011;10891;49.350;19.386;2022-12-18T01:16:18;75.13;;;21.20;;
21458;SDS011;10891;49.350;19.386;2022-12-18T01:18:45;67.90;;;22.87;;
21458;SDS011;10891;49.350;19.386;2022-12-18T01:21:12;61.97;;;22.00;;
21458;SDS011;10891;49.350;19.386;2022-12-18T01:23:42;86.40;;;29.80;;
21458;SDS011;10891;49.350;19.386;2022-12-18T01:26:10;105.30;;;32.17;;
21458;SDS011;10891;49.350;19.386;2022-12-18T01:28:38;65.37;;;21.23;;
21458;SDS011;10891;49.350;19.386;2022-12-18T01:31:12;62.53;;;18.83;;
21458;SDS011;10891;49.350;19.386;2022-12-18T01:33:41;83.87;;;21.87;;
21458;SDS011;10891;49.350;19.386;2022-12-18T01:36:13;68.93;;;20.60;;
21458;SDS011;10891;49.350;19.386;2022-12-18T01:38:43;74.00;;;20.93;;
21458;SDS011;10891;49.350;19.386;2022-12-18T01:41:10;70.47;;;23.47;;
21458;SDS011;10891;49.350;19.386;2022-12-18T01:43:45;67.67;;;19.97;;
21458;SDS011;10891;49.350;19.386;2022-12-18T01:46:14;58.70;;;20.83;;
21458;SDS011;10891;49.350;19.386;2022-12-18T01:48:42;60.43;;;20.27;;
21458;SDS011;10891;49.350;19.386;2022-12-18T01:51:10;64.77;;;22.53;;
21458;SDS011;10891;49.350;19.386;2022-12-18T01:53:39;57.60;;;19.63;;
21458;SDS011;10891;49.350;19.386;2022-12-18T01:56:08;77.10;;;24.67;;
21458;SDS011;10891;49.350;19.386;2022-12-18T01:58:40;76.97;;;26.27;;
21458;SDS011;10891;49.350;19.386;2022-12-18T02:01:12;69.97;;;23.53;;
21458;SDS011;10891;49.350;19.386;2022-12-18T02:03:40;63.63;;;19.43;;
21458;SDS011;10891;49.350;19.386;2022-12-18T02:06:10;72.07;;;22.67;;
21458;SDS011;10891;49.350;19.386;2022-12-18T02:08:43;51.77;;;17.57;;
21458;SDS011;10891;49.350;19.386;2022-12-18T02:11:25;51.30;;;16.07;;
21458;SDS011;10891;49.350;19.386;2022-12-18T02:14:05;58.57;;;17.60;;
21458;SDS011;10891;49.350;19.386;2022-12-18T02:16:42;76.97;;;22.40;;
21458;SDS011;10891;49.350;19.386;2022-12-18T02:19:16;70.97;;;23.17;;
21458;SDS011;10891;49.350;19.386;2022-12-18T02:22:03;70.10;;;21.57;;
21458;SDS011;10891;49.350;19.386;2022-12-18T02:24:41;59.20;;;21.90;;
21458;SDS011;10891;49.350;19.386;2022-12-18T02:27:18;29.53;;;10.07;;
21458;SDS011;10891;49.350;19.386;2022-12-18T02:29:47;69.07;;;22.03;;
21458;SDS011;10891;49.350;19.386;2022-12-18T02:32:17;76.00;;;22.90;;
21458;SDS011;10891;49.350;19.386;2022-12-18T02:34:50;73.80;;;22.77;;
21458;SDS011;10891;49.350;19.386;2022-12-18T02:37:19;74.03;;;22.43;;
21458;SDS011;10891;49.350;19.386;2022-12-18T02:39:48;68.67;;;22.87;;
21458;SDS011;10891;49.350;19.386;2022-12-18T02:42:15;67.40;;;21.87;;
21458;SDS011;10891;49.350;19.386;2022-12-18T02:44:46;65.77;;;23.53;;
21458;SDS011;10891;49.350;19.386;2022-12-18T02:47:15;57.17;;;19.30;;
21458;SDS011;10891;49.350;19.386;2022-12-18T02:49:46;62.53;;;20.50;;
21458;SDS011;10891;49.350;19.386;2022-12-18T02:52:22;73.03;;;21.87;;
21458;SDS011;10891;49.350;19.386;2022-12-18T02:55:01;61.93;;;21.73;;
21458;SDS011;10891;49.350;19.386;2022-12-18T02:57:40;68.60;;;20.13;;
21458;SDS011;10891;49.350;19.386;2022-12-18T03:00:12;57.20;;;18.67;;
21458;SDS011;10891;49.350;19.386;2022-12-18T03:02:44;62.67;;;20.80;;
21458;SDS011;10891;49.350;19.386;2022-12-18T03:05:15;59.63;;;19.40;;
21458;SDS011;10891;49.350;19.386;2022-12-18T03:07:46;60.33;;;20.97;;
21458;SDS011;10891;49.350;19.386;2022-12-18T03:10:19;69.43;;;22.30;;
21458;SDS011;10891;49.350;19.386;2022-12-18T03:12:53;36.17;;;13.97;;
21458;SDS011;10891;49.350;19.386;2022-12-18T03:15:27;52.93;;;18.17;;
21458;SDS011;10891;49.350;19.386;2022-12-18T03:17:59;65.67;;;21.90;;
21458;SDS011;10891;49.350;19.386;2022-12-18T03:20:31;56.37;;;18.67;;
21458;SDS011;10891;49.350;19.386;2022-12-18T03:23:02;50.33;;;16.53;;
21458;SDS011;10891;49.350;19.386;2022-12-18T03:25:32;90.83;;;26.30;;
21458;SDS011;10891;49.350;19.386;2022-12-18T03:28:03;97.37;;;32.53;;
21458;SDS011;10891;49.350;19.386;2022-12-18T03:30:33;67.20;;;22.30;;
21458;SDS011;10891;49.350;19.386;2022-12-18T03:33:05;76.17;;;25.93;;
21458;SDS011;10891;49.350;19.386;2022-12-18T03:35:37;75.30;;;24.77;;
21458;SDS011;10891;49.350;19.386;2022-12-18T03:38:07;74.33;;;24.37;;
21458;SDS011;10891;49.350;19.386;2022-12-18T03:40:36;78.30;;;24.30;;
21458;SDS011;10891;49.350;19.386;2022-12-18T03:43:15;65.10;;;24.40;;
21458;SDS011;10891;49.350;19.386;2022-12-18T03:45:48;79.00;;;22.57;;
21458;SDS011;10891;49.350;19.386;2022-12-18T03:48:21;122.97;;;29.37;;
21458;SDS011;10891;49.350;19.386;2022-12-18T03:50:56;84.63;;;24.70;;
21458;SDS011;10891;49.350;19.386;2022-12-18T03:53:28;76.33;;;24.53;;
21458;SDS011;10891;49.350;19.386;2022-12-18T03:56:00;65.13;;;22.20;;
21458;SDS011;10891;49.350;19.386;2022-12-18T03:58:29;67.10;;;20.33;;
21458;SDS011;10891;49.350;19.386;2022-12-18T04:00:59;67.27;;;22.00;;
21458;SDS011;10891;49.350;19.386;2022-12-18T04:03:28;64.87;;;20.53;;
21458;SDS011;10891;49.350;19.386;2022-12-18T04:05:57;70.23;;;24.77;;
21458;SDS011;10891;49.350;19.386;2022-12-18T04:08:26;77.77;;;25.53;;
21458;SDS011;10891;49.350;19.386;2022-12-18T04:10:53;60.40;;;23.07;;
21458;SDS011;10891;49.350;19.386;2022-12-18T04:13:23;83.00;;;24.73;;
21458;SDS011;10891;49.350;19.386;2022-12-18T04:15:52;56.60;;;17.80;;
21458;SDS011;10891;49.350;19.386;2022-12-18T04:18:19;63.53;;;19.13;;
21458;SDS011;10891;49.350;19.386;2022-12-18T04:20:46;55.10;;;20.97;;
21458;SDS011;10891;49.350;19.386;2022-12-18T04:23:13;68.50;;;18.57;;
21458;SDS011;10891;49.350;19.386;2022-12-18T04:25:40;83.53;;;29.13;;
21458;SDS011;10891;49.350;19.386;2022-12-18T04:28:06;72.33;;;24.97;;
21458;SDS011;10891;49.350;19.386;2022-12-18T04:30:33;59.60;;;20.50;;
21458;SDS011;10891;49.350;19.386;2022-12-18T04:33:02;71.23;;;23.97;;
21458;SDS011;10891;49.350;19.386;2022-12-18T04:35:28;75.37;;;26.07;;
21458;SDS011;10891;49.350;19.386;2022-12-18T04:37:56;77.43;;;26.30;;
21458;SDS011;10891;49.350;19.386;2022-12-18T04:40:22;82.63;;;28.13;;
21458;SDS011;10891;49.350;19.386;2022-12-18T04:42:49;82.00;;;33.73;;
21458;SDS011;10891;49.350;19.386;2022-12-18T04:45:16;80.67;;;30.37;;
21458;SDS011;10891;49.350;19.386;2022-12-18T04:47:43;82.70;;;33.63;;
21458;SDS011;10891;49.350;19.386;2022-12-18T04:50:11;77.97;;;27.73;;
21458;SDS011;10891;49.350;19.386;2022-12-18T04:52:38;66.20;;;23.50;;
21458;SDS011;10891;49.350;19.386;2022-12-18T04:55:05;68.27;;;23.80;;
21458;SDS011;10891;49.350;19.386;2022-12-18T04:57:32;73.03;;;24.27;;
21458;SDS011;10891;49.350;19.386;2022-12-18T04:59:59;61.40;;;20.57;;
21458;SDS011;10891;49.350;19.386;2022-12-18T05:02:26;56.93;;;20.57;;
21458;SDS011;10891;49.350;19.386;2022-12-18T05:04:53;59.80;;;20.30;;
21458;SDS011;10891;49.350;19.386;2022-12-18T05:07:21;75.63;;;23.57;;
21458;SDS011;10891;49.350;19.386;2022-12-18T05:09:48;237.20;;;64.30;;
21458;SDS011;10891;49.350;19.386;2022-12-18T05:12:15;81.00;;;28.83;;
21458;SDS011;10891;49.350;19.386;2022-12-18T05:14:42;80.00;;;24.07;;
21458;SDS011;10891;49.350;19.386;2022-12-18T05:17:09;74.10;;;24.77;;
21458;SDS011;10891;49.350;19.386;2022-12-18T05:19:36;60.57;;;21.50;;
21458;SDS011;10891;49.350;19.386;2022-12-18T05:22:02;44.97;;;15.00;;
21458;SDS011;10891;49.350;19.386;2022-12-18T05:24:38;71.27;;;24.43;;
21458;SDS011;10891;49.350;19.386;2022-12-18T05:27:05;56.00;;;20.50;;
21458;SDS011;10891;49.350;19.386;2022-12-18T05:29:31;75.97;;;24.27;;
21458;SDS011;10891;49.350;19.386;2022-12-18T05:31:59;90.03;;;27.23;;
21458;SDS011;10891;49.350;19.386;2022-12-18T05:34:26;84.57;;;27.27;;
21458;SDS011;10891;49.350;19.386;2022-12-18T05:36:53;81.47;;;24.50;;
21458;SDS011;10891;49.350;19.386;2022-12-18T05:39:20;68.80;;;22.00;;
21458;SDS011;10891;49.350;19.386;2022-12-18T05:41:48;85.20;;;29.93;;
21458;SDS011;10891;49.350;19.386;2022-12-18T05:44:15;92.37;;;29.07;;
21458;SDS011;10891;49.350;19.386;2022-12-18T05:46:41;76.27;;;26.33;;
21458;SDS011;10891;49.350;19.386;2022-12-18T05:49:08;53.20;;;19.57;;
21458;SDS011;10891;49.350;19.386;2022-12-18T05:51:35;69.63;;;18.30;;
21458;SDS011;10891;49.350;19.386;2022-12-18T05:54:02;61.47;;;24.47;;
21458;SDS011;10891;49.350;19.386;2022-12-18T05:56:29;63.40;;;19.87;;
21458;SDS011;10891;49.350;19.386;2022-12-18T05:58:57;69.10;;;24.10;;
21458;SDS011;10891;49.350;19.386;2022-12-18T06:01:25;66.83;;;21.37;;
21458;SDS011;10891;49.350;19.386;2022-12-18T06:03:52;213.03;;;54.57;;
21458;SDS011;10891;49.350;19.386;2022-12-18T06:06:20;163.80;;;40.83;;
21458;SDS011;10891;49.350;19.386;2022-12-18T06:08:48;199.70;;;52.20;;
21458;SDS011;10891;49.350;19.386;2022-12-18T06:11:16;124.17;;;40.03;;
21458;SDS011;10891;49.350;19.386;2022-12-18T06:13:45;91.50;;;30.67;;
21458;SDS011;10891;49.350;19.386;2022-12-18T06:16:14;151.38;;;49.95;;
21458;SDS011;10891;49.350;19.386;2022-12-18T06:18:41;121.97;;;33.73;;
21458;SDS011;10891;49.350;19.386;2022-12-18T06:21:08;120.07;;;32.90;;
21458;SDS011;10891;49.350;19.386;2022-12-18T06:23:35;88.00;;;27.33;;
21458;SDS011;10891;49.350;19.386;2022-12-18T06:26:03;44.20;;;15.97;;
21458;SDS011;10891;49.350;19.386;2022-12-18T06:28:31;83.47;;;27.73;;
21458;SDS011;10891;49.350;19.386;2022-12-18T06:30:58;126.20;;;47.40;;
21458;SDS011;10891;49.350;19.386;2022-12-18T06:33:27;119.50;;;45.43;;
21458;SDS011;10891;49.350;19.386;2022-12-18T06:35:54;280.90;;;76.30;;
21458;SDS011;10891;49.350;19.386;2022-12-18T06:38:25;193.63;;;59.30;;
21458;SDS011;10891;49.350;19.386;2022-12-18T06:40:52;70.30;;;27.33;;
21458;SDS011;10891;49.350;19.386;2022-12-18T06:43:20;122.13;;;34.67;;
21458;SDS011;10891;49.350;19.386;2022-12-18T06:45:46;161.03;;;45.87;;
21458;SDS011;10891;49.350;19.386;2022-12-18T06:48:17;124.47;;;36.27;;
21458;SDS011;10891;49.350;19.386;2022-12-18T06:50:46;142.60;;;38.73;;
21458;SDS011;10891;49.350;19.386;2022-12-18T06:53:13;60.97;;;21.97;;
21458;SDS011;10891;49.350;19.386;2022-12-18T06:55:40;149.20;;;49.70;;
21458;SDS011;10891;49.350;19.386;2022-12-18T06:58:07;142.20;;;52.47;;
21458;SDS011;10891;49.350;19.386;2022-12-18T07:00:34;128.47;;;37.63;;
21458;SDS011;10891;49.350;19.386;2022-12-18T07:03:01;144.63;;;42.83;;
21458;SDS011;10891;49.350;19.386;2022-12-18T07:05:28;158.97;;;48.80;;
21458;SDS011;10891;49.350;19.386;2022-12-18T07:07:58;209.17;;;59.77;;
21458;SDS011;10891;49.350;19.386;2022-12-18T07:10:25;208.07;;;63.47;;
21458;SDS011;10891;49.350;19.386;2022-12-18T07:12:52;172.67;;;53.97;;
21458;SDS011;10891;49.350;19.386;2022-12-18T07:15:19;178.07;;;55.13;;
21458;SDS011;10891;49.350;19.386;2022-12-18T07:17:46;163.37;;;47.60;;
21458;SDS011;10891;49.350;19.386;2022-12-18T07:20:13;115.50;;;34.73;;
21458;SDS011;10891;49.350;19.386;2022-12-18T07:22:40;117.77;;;36.20;;
21458;SDS011;10891;49.350;19.386;2022-12-18T07:25:08;79.83;;;23.47;;
21458;SDS011;10891;49.350;19.386;2022-12-18T07:27:36;114.47;;;35.33;;
21458;SDS011;10891;49.350;19.386;2022-12-18T07:30:03;128.27;;;36.67;;
21458;SDS011;10891;49.350;19.386;2022-12-18T07:32:31;132.77;;;40.67;;
21458;SDS011;10891;49.350;19.386;2022-12-18T07:34:58;96.97;;;31.17;;
21458;SDS011;10891;49.350;19.386;2022-12-18T07:37:25;89.00;;;27.23;;
21458;SDS011;10891;49.350;19.386;2022-12-18T07:39:52;156.67;;;47.70;;
21458;SDS011;10891;49.350;19.386;2022-12-18T07:42:20;188.93;;;58.37;;
21458;SDS011;10891;49.350;19.386;2022-12-18T07:45:00;218.20;;;65.07;;
21458;SDS011;10891;49.350;19.386;2022-12-18T07:47:27;218.60;;;73.00;;
21458;SDS011;10891;49.350;19.386;2022-12-18T07:49:54;159.00;;;49.87;;
21458;SDS011;10891;49.350;19.386;2022-12-18T07:52:21;166.27;;;48.87;;
21458;SDS011;10891;49.350;19.386;2022-12-18T07:54:48;119.77;;;41.07;;
21458;SDS011;10891;49.350;19.386;2022-12-18T07:57:15;117.93;;;34.93;;
21458;SDS011;10891;49.350;19.386;2022-12-18T07:59:43;53.87;;;21.07;;
21458;SDS011;10891;49.350;19.386;2022-12-18T08:02:10;57.07;;;22.10;;
21458;SDS011;10891;49.350;19.386;2022-12-18T08:04:37;58.17;;;23.67;;
21458;SDS011;10891;49.350;19.386;2022-12-18T08:07:04;124.33;;;40.77;;
21458;SDS011;10891;49.350;19.386;2022-12-18T08:09:30;131.67;;;43.53;;
21458;SDS011;10891;49.350;19.386;2022-12-18T08:11:57;136.00;;;40.90;;
21458;SDS011;10891;49.350;19.386;2022-12-18T08:14:24;182.93;;;56.70;;
21458;SDS011;10891;49.350;19.386;2022-12-18T08:16:52;135.93;;;43.93;;
21458;SDS011;10891;49.350;19.386;2022-12-18T08:19:19;152.87;;;51.80;;
21458;SDS011;10891;49.350;19.386;2022-12-18T08:21:46;168.37;;;53.00;;
21458;SDS011;10891;49.350;19.386;2022-12-18T08:24:13;113.10;;;37.97;;
21458;SDS011;10891;49.350;19.386;2022-12-18T08:26:40;165.33;;;50.50;;
21458;SDS011;10891;49.350;19.386;2022-12-18T08:29:07;184.33;;;54.87;;
21458;SDS011;10891;49.350;19.386;2022-12-18T08:31:34;161.17;;;52.10;;
21458;SDS011;10891;49.350;19.386;2022-12-18T08:34:03;135.23;;;43.97;;
21458;SDS011;10891;49.350;19.386;2022-12-18T08:36:30;162.27;;;51.13;;
21458;SDS011;10891;49.350;19.386;2022-12-18T08:38:57;152.63;;;48.23;;
21458;SDS011;10891;49.350;19.386;2022-12-18T08:41:26;201.70;;;65.23;;
21458;SDS011;10891;49.350;19.386;2022-12-18T08:43:54;188.17;;;61.70;;
21458;SDS011;10891;49.350;19.386;2022-12-18T08:46:50;167.67;;;56.90;;
21458;SDS011;10891;49.350;19.386;2022-12-18T08:49:18;199.40;;;69.13;;
21458;SDS011;10891;49.350;19.386;2022-12-18T08:51:45;195.43;;;67.60;;
21458;SDS011;10891;49.350;19.386;2022-12-18T08:54:12;182.27;;;62.00;;
21458;SDS011;10891;49.350;19.386;2022-12-18T08:56:39;210.97;;;66.20;;
21458;SDS011;10891;49.350;19.386;2022-12-18T08:59:06;196.37;;;62.17;;
21458;SDS011;10891;49.350;19.386;2022-12-18T09:01:34;232.73;;;74.00;;
21458;SDS011;10891;49.350;19.386;2022-12-18T09:04:01;228.73;;;75.63;;
21458;SDS011;10891;49.350;19.386;2022-12-18T09:06:30;359.83;;;111.73;;
21458;SDS011;10891;49.350;19.386;2022-12-18T09:08:57;299.90;;;89.93;;
21458;SDS011;10891;49.350;19.386;2022-12-18T09:11:26;186.13;;;60.70;;
21458;SDS011;10891;49.350;19.386;2022-12-18T09:13:54;93.80;;;30.43;;
21458;SDS011;10891;49.350;19.386;2022-12-18T09:16:22;115.97;;;27.43;;
21458;SDS011;10891;49.350;19.386;2022-12-18T09:18:50;99.40;;;22.37;;
21458;SDS011;10891;49.350;19.386;2022-12-18T09:21:19;115.70;;;26.97;;
21458;SDS011;10891;49.350;19.386;2022-12-18T09:23:50;105.77;;;24.23;;
21458;SDS011;10891;49.350;19.386;2022-12-18T09:26:17;114.23;;;30.30;;
21458;SDS011;10891;49.350;19.386;2022-12-18T09:28:44;98.67;;;29.33;;
21458;SDS011;10891;49.350;19.386;2022-12-18T09:31:11;152.80;;;41.37;;
21458;SDS011;10891;49.350;19.386;2022-12-18T09:33:39;123.90;;;43.00;;
21458;SDS011;10891;49.350;19.386;2022-12-18T09:36:07;140.00;;;44.47;;
21458;SDS011;10891;49.350;19.386;2022-12-18T09:38:36;115.27;;;34.80;;
21458;SDS011;10891;49.350;19.386;2022-12-18T09:41:05;102.03;;;31.70;;
21458;SDS011;10891;49.350;19.386;2022-12-18T09:43:48;70.00;;;18.10;;
21458;SDS011;10891;49.350;19.386;2022-12-18T09:46:19;66.07;;;23.63;;
21458;SDS011;10891;49.350;19.386;2022-12-18T09:48:52;91.87;;;27.47;;
21458;SDS011;10891;49.350;19.386;2022-12-18T09:51:23;85.67;;;27.50;;
21458;SDS011;10891;49.350;19.386;2022-12-18T09:53:56;102.47;;;26.37;;
21458;SDS011;10891;49.350;19.386;2022-12-18T09:56:28;120.77;;;35.30;;
21458;SDS011;10891;49.350;19.386;2022-12-18T09:58:58;157.23;;;46.63;;
21458;SDS011;10891;49.350;19.386;2022-12-18T10:01:27;109.03;;;38.67;;
21458;SDS011;10891;49.350;19.386;2022-12-18T10:03:56;123.23;;;33.53;;
21458;SDS011;10891;49.350;19.386;2022-12-18T10:06:24;157.67;;;53.00;;
21458;SDS011;10891;49.350;19.386;2022-12-18T10:08:59;80.37;;;25.03;;
21458;SDS011;10891;49.350;19.386;2022-12-18T10:11:36;230.73;;;81.13;;
21458;SDS011;10891;49.350;19.386;2022-12-18T10:14:11;260.73;;;90.80;;
21458;SDS011;10891;49.350;19.386;2022-12-18T10:16:47;137.20;;;42.93;;
21458;SDS011;10891;49.350;19.386;2022-12-18T10:19:35;211.13;;;60.60;;
21458;SDS011;10891;49.350;19.386;2022-12-18T10:22:16;159.57;;;49.33;;
21458;SDS011;10891;49.350;19.386;2022-12-18T10:24:54;190.03;;;55.63;;
21458;SDS011;10891;49.350;19.386;2022-12-18T10:27:29;158.17;;;50.97;;
21458;SDS011;10891;49.350;19.386;2022-12-18T10:29:57;163.17;;;51.57;;
21458;SDS011;10891;49.350;19.386;2022-12-18T10:32:26;154.83;;;49.57;;
21458;SDS011;10891;49.350;19.386;2022-12-18T10:34:55;125.07;;;38.17;;
21458;SDS011;10891;49.350;19.386;2022-12-18T10:37:24;94.13;;;28.80;;
21458;SDS011;10891;49.350;19.386;2022-12-18T10:40:07;107.07;;;34.87;;
21458;SDS011;10891;49.350;19.386;2022-12-18T10:42:39;87.90;;;28.63;;
21458;SDS011;10891;49.350;19.386;2022-12-18T10:45:10;90.83;;;28.40;;
21458;SDS011;10891;49.350;19.386;2022-12-18T10:47:41;84.60;;;21.83;;
21458;SDS011;10891;49.350;19.386;2022-12-18T10:50:22;65.40;;;20.20;;
21458;SDS011;10891;49.350;19.386;2022-12-18T10:52:55;78.67;;;22.23;;
21458;SDS011;10891;49.350;19.386;2022-12-18T10:55:26;72.70;;;23.73;;
21458;SDS011;10891;49.350;19.386;2022-12-18T10:58:13;71.17;;;22.93;;
21458;SDS011;10891;49.350;19.386;2022-12-18T11:01:01;80.43;;;25.10;;
21458;SDS011;10891;49.350;19.386;2022-12-18T11:03:31;68.23;;;21.63;;
21458;SDS011;10891;49.350;19.386;2022-12-18T11:06:02;73.50;;;23.00;;
21458;SDS011;10891;49.350;19.386;2022-12-18T11:08:31;72.57;;;24.80;;
21458;SDS011;10891;49.350;19.386;2022-12-18T11:10:59;95.30;;;33.20;;
21458;SDS011;10891;49.350;19.386;2022-12-18T11:13:29;85.70;;;29.27;;
21458;SDS011;10891;49.350;19.386;2022-12-18T11:15:57;98.33;;;28.53;;
21458;SDS011;10891;49.350;19.386;2022-12-18T11:18:26;87.90;;;27.87;;
21458;SDS011;10891;49.350;19.386;2022-12-18T11:20:56;89.10;;;26.33;;
21458;SDS011;10891;49.350;19.386;2022-12-18T11:23:26;87.83;;;26.17;;
21458;SDS011;10891;49.350;19.386;2022-12-18T11:25:55;89.17;;;28.13;;
21458;SDS011;10891;49.350;19.386;2022-12-18T11:28:29;63.20;;;20.80;;
21458;SDS011;10891;49.350;19.386;2022-12-18T11:33:58;165.40;;;51.97;;
21458;SDS011;10891;49.350;19.386;2022-12-18T11:36:30;133.60;;;44.40;;
21458;SDS011;10891;49.350;19.386;2022-12-18T11:39:02;137.53;;;46.73;;
21458;SDS011;10891;49.350;19.386;2022-12-18T11:41:41;118.53;;;38.90;;
21458;SDS011;10891;49.350;19.386;2022-12-18T11:44:34;115.43;;;37.53;;
21458;SDS011;10891;49.350;19.386;2022-12-18T11:47:08;210.37;;;72.43;;
21458;SDS011;10891;49.350;19.386;2022-12-18T11:49:39;167.43;;;52.80;;
21458;SDS011;10891;49.350;19.386;2022-12-18T11:52:09;166.13;;;49.53;;
21458;SDS011;10891;49.350;19.386;2022-12-18T11:54:43;206.90;;;65.07;;
21458;SDS011;10891;49.350;19.386;2022-12-18T11:57:13;252.50;;;86.40;;
21458;SDS011;10891;49.350;19.386;2022-12-18T11:59:54;322.13;;;99.67;;
21458;SDS011;10891;49.350;19.386;2022-12-18T12:02:33;262.13;;;89.00;;
21458;SDS011;10891;49.350;19.386;2022-12-18T12:05:16;184.37;;;62.27;;
21458;SDS011;10891;49.350;19.386;2022-12-18T12:07:55;176.10;;;63.13;;
21458;SDS011;10891;49.350;19.386;2022-12-18T12:10:40;167.43;;;53.63;;
21458;SDS011;10891;49.350;19.386;2022-12-18T12:13:22;141.27;;;42.73;;
21458;SDS011;10891;49.350;19.386;2022-12-18T12:16:02;153.67;;;46.33;;
21458;SDS011;10891;49.350;19.386;2022-12-18T12:18:40;106.37;;;33.77;;
21458;SDS011;10891;49.350;19.386;2022-12-18T12:21:24;109.10;;;38.40;;
21458;SDS011;10891;49.350;19.386;2022-12-18T12:23:57;82.03;;;25.97;;
21458;SDS011;10891;49.350;19.386;2022-12-18T12:26:32;111.13;;;33.27;;
21458;SDS011;10891;49.350;19.386;2022-12-18T12:29:13;58.93;;;19.30;;
21458;SDS011;10891;49.350;19.386;2022-12-18T12:31:58;125.10;;;34.37;;
21458;SDS011;10891;49.350;19.386;2022-12-18T12:34:34;187.60;;;60.30;;
21458;SDS011;10891;49.350;19.386;2022-12-18T12:37:17;195.27;;;56.17;;
21458;SDS011;10891;49.350;19.386;2022-12-18T12:39:53;142.77;;;44.20;;
21458;SDS011;10891;49.350;19.386;2022-12-18T12:42:23;270.03;;;74.97;;
21458;SDS011;10891;49.350;19.386;2022-12-18T12:45:24;209.27;;;65.07;;
21458;SDS011;10891;49.350;19.386;2022-12-18T12:47:59;228.83;;;74.13;;
21458;SDS011;10891;49.350;19.386;2022-12-18T12:50:33;203.37;;;58.90;;
21458;SDS011;10891;49.350;19.386;2022-12-18T12:53:01;186.07;;;56.70;;
21458;SDS011;10891;49.350;19.386;2022-12-18T12:55:34;189.33;;;53.87;;
21458;SDS011;10891;49.350;19.386;2022-12-18T12:58:04;250.33;;;71.27;;
21458;SDS011;10891;49.350;19.386;2022-12-18T13:00:39;319.23;;;83.13;;
21458;SDS011;10891;49.350;19.386;2022-12-18T13:03:14;210.10;;;62.23;;
21458;SDS011;10891;49.350;19.386;2022-12-18T13:05:50;200.53;;;57.23;;
21458;SDS011;10891;49.350;19.386;2022-12-18T13:08:22;208.67;;;59.00;;
21458;SDS011;10891;49.350;19.386;2022-12-18T13:10:51;264.27;;;75.27;;
21458;SDS011;10891;49.350;19.386;2022-12-18T13:13:49;201.63;;;58.07;;
21458;SDS011;10891;49.350;19.386;2022-12-18T13:16:18;213.83;;;62.97;;
21458;SDS011;10891;49.350;19.386;2022-12-18T13:18:50;236.93;;;63.77;;
21458;SDS011;10891;49.350;19.386;2022-12-18T13:21:21;177.47;;;51.07;;
21458;SDS011;10891;49.350;19.386;2022-12-18T13:23:52;165.23;;;48.43;;
21458;SDS011;10891;49.350;19.386;2022-12-18T13:26:32;194.20;;;53.73;;
21458;SDS011;10891;49.350;19.386;2022-12-18T13:28:59;191.33;;;50.80;;
21458;SDS011;10891;49.350;19.386;2022-12-18T13:34:27;241.07;;;65.00;;
21458;SDS011;10891;49.350;19.386;2022-12-18T13:36:56;422.77;;;103.13;;
21458;SDS011;10891;49.350;19.386;2022-12-18T13:39:44;382.70;;;105.10;;
21458;SDS011;10891;49.350;19.386;2022-12-18T13:45:40;384.07;;;94.23;;
21458;SDS011;10891;49.350;19.386;2022-12-18T13:48:20;325.73;;;85.27;;
21458;SDS011;10891;49.350;19.386;2022-12-18T13:50:55;439.73;;;113.47;;
21458;SDS011;10891;49.350;19.386;2022-12-18T13:53:26;349.23;;;91.43;;
21458;SDS011;10891;49.350;19.386;2022-12-18T13:55:56;344.60;;;84.80;;
21458;SDS011;10891;49.350;19.386;2022-12-18T13:58:24;210.00;;;58.63;;
21458;SDS011;10891;49.350;19.386;2022-12-18T14:00:51;551.40;;;126.67;;
21458;SDS011;10891;49.350;19.386;2022-12-18T14:03:19;452.70;;;106.93;;
21458;SDS011;10891;49.350;19.386;2022-12-18T14:05:52;382.47;;;98.03;;
21458;SDS011;10891;49.350;19.386;2022-12-18T14:08:23;527.10;;;133.63;;
21458;SDS011;10891;49.350;19.386;2022-12-18T14:10:51;515.53;;;133.57;;
21458;SDS011;10891;49.350;19.386;2022-12-18T14:13:20;621.87;;;187.87;;
21458;SDS011;10891;49.350;19.386;2022-12-18T14:15:50;475.50;;;112.20;;
21458;SDS011;10891;49.350;19.386;2022-12-18T14:18:19;412.40;;;102.00;;
21458;SDS011;10891;49.350;19.386;2022-12-18T14:20:48;278.83;;;76.40;;
21458;SDS011;10891;49.350;19.386;2022-12-18T14:23:31;280.33;;;78.57;;
21458;SDS011;10891;49.350;19.386;2022-12-18T14:26:01;365.97;;;96.43;;
21458;SDS011;10891;49.350;19.386;2022-12-18T14:28:29;395.90;;;99.47;;
21458;SDS011;10891;49.350;19.386;2022-12-18T14:30:56;471.77;;;126.83;;
21458;SDS011;10891;49.350;19.386;2022-12-18T14:33:24;459.90;;;122.13;;